Time;durP1;ratioP1;P1;durP2;ratioP2;P2;SDS_P1;SDS_P2;PMS_P1;PMS_P2;Temp;Humidity;BMP_temperature;BMP_pressure;BME280_temperature;BME280_humidity;BME280_pressure;Samples;Min_cycle;Max_cycle;Signal;HPM_P1;HPM_P2
2022/09/09 00:01:51;;;;;;;8.07;2.70;;;;;;;8.96;68.95;100227.44;4950985;28;20066;-52
2022/09/09 00:04:29;;;;;;;8.30;2.45;;;;;;;8.97;68.59;100237.78;4951252;29;20332;-51
2022/09/09 00:07:16;;;;;;;6.38;2.50;;;;;;;8.97;68.77;100229.16;4968977;28;20054;-53
2022/09/09 00:10:14;;;;;;;8.18;2.70;;;;;;;8.97;69.09;100235.19;4960483;28;20069;-50
2022/09/09 00:13:04;;;;;;;7.70;2.70;;;;;;;8.97;68.60;100226.56;4964201;28;20138;-53
2022/09/09 00:15:39;;;;;;;5.75;2.65;;;;;;;8.98;68.56;100231.72;4972051;28;20038;-53
2022/09/09 00:18:14;;;;;;;8.00;2.55;;;;;;;8.97;69.00;100229.16;4970992;28;20077;-52
2022/09/09 00:20:52;;;;;;;6.85;2.92;;;;;;;8.83;68.97;100211.28;4972043;28;20039;-52
2022/09/09 00:23:24;;;;;;;9.68;2.90;;;;;;;8.98;69.05;100239.50;4970747;28;20061;-53
2022/09/09 00:25:59;;;;;;;6.20;3.03;;;;;;;8.98;69.19;100230.88;4971814;28;20039;-54
2022/09/09 00:28:27;;;;;;;8.85;3.30;;;;;;;8.95;69.22;100233.53;4972922;28;20050;-52
2022/09/09 00:30:53;;;;;;;7.68;3.17;;;;;;;8.97;69.14;100242.97;4955103;28;20062;-55
2022/09/09 00:33:23;;;;;;;7.47;2.95;;;;;;;8.96;69.20;100240.41;4971119;28;20046;-54
2022/09/09 00:35:52;;;;;;;9.63;3.17;;;;;;;8.96;69.53;100248.19;4955731;28;20051;-55
2022/09/09 00:38:34;;;;;;;8.90;3.30;;;;;;;8.93;69.33;100252.56;4955288;28;20050;-55
2022/09/09 00:41:02;;;;;;;7.50;3.33;;;;;;;8.92;69.50;100244.81;4977030;28;20055;-55
2022/09/09 00:43:30;;;;;;;8.18;3.05;;;;;;;8.89;69.24;100261.28;4972627;28;20186;-56
2022/09/09 00:45:59;;;;;;;6.72;2.90;;;;;;;8.89;69.43;100250.91;4971582;28;20046;-54
2022/09/09 00:48:54;;;;;;;8.80;2.75;;;;;;;8.88;69.86;100249.22;4969087;28;20043;-52
2022/09/09 00:51:41;;;;;;;11.70;2.90;;;;;;;8.88;69.64;100259.56;4943119;28;20628;-53
2022/09/09 00:54:33;;;;;;;9.18;3.10;;;;;;;8.83;69.85;100255.34;4962504;28;20471;-54
2022/09/09 00:57:18;;;;;;;8.82;3.28;;;;;;;8.79;69.86;100258.91;4954056;28;20043;-53
2022/09/09 00:59:52;;;;;;;8.38;3.03;;;;;;;8.78;69.65;100264.97;4948635;29;20507;-52
2022/09/09 01:02:26;;;;;;;6.40;2.78;;;;;;;8.77;69.99;100266.69;4960120;28;20129;-55
2022/09/09 01:04:52;;;;;;;9.82;2.80;;;;;;;8.75;70.17;100263.25;4971496;28;20556;-52
2022/09/09 01:07:19;;;;;;;11.18;2.58;;;;;;;8.73;69.78;100267.63;4970846;28;20046;-56
2022/09/09 01:10:12;;;;;;;7.85;2.67;;;;;;;8.68;70.11;100276.38;4954710;28;20698;-53
2022/09/09 01:12:43;;;;;;;5.00;2.80;;;;;;;8.56;70.31;100269.66;4935667;28;20527;-52
2022/09/09 01:15:24;;;;;;;4.25;2.33;;;;;;;8.47;70.58;100270.66;4958897;28;20481;-53
2022/09/09 01:18:09;;;;;;;4.03;2.00;;;;;;;8.44;70.85;100275.03;4969807;28;20049;-50
2022/09/09 01:21:00;;;;;;;6.20;2.88;;;;;;;8.41;70.94;100280.28;4955312;28;20093;-52
2022/09/09 01:23:53;;;;;;;3.78;2.00;;;;;;;8.40;71.50;100275.97;4952729;28;20047;-49
2022/09/09 01:26:55;;;;;;;5.35;2.38;;;;;;;8.39;71.21;100272.50;4955489;28;20043;-52
2022/09/09 01:29:25;;;;;;;3.55;1.85;;;;;;;8.38;71.48;100277.72;4950070;28;20562;-54
2022/09/09 01:31:55;;;;;;;3.50;2.22;;;;;;;8.36;71.81;100282.94;4969388;28;20047;-51
2022/09/09 01:34:23;;;;;;;2.90;2.00;;;;;;;8.34;71.71;100286.41;4971969;28;20129;-54
2022/09/09 01:37:10;;;;;;;5.95;2.53;;;;;;;8.33;71.63;100284.69;4954707;28;20042;-49
2022/09/09 01:39:39;;;;;;;5.75;2.00;;;;;;;8.29;71.70;100286.47;4981684;28;20145;-49
2022/09/09 01:42:11;;;;;;;6.07;2.33;;;;;;;8.05;71.89;100260.94;4938618;28;20046;-53
2022/09/09 01:44:38;;;;;;;3.60;2.03;;;;;;;7.98;72.00;100265.34;4969227;28;20046;-52
2022/09/09 01:47:04;;;;;;;6.40;2.00;;;;;;;8.13;72.24;100297.06;4937250;28;20043;-55
2022/09/09 01:49:32;;;;;;;3.88;2.08;;;;;;;8.07;72.61;100298.00;4970641;28;20045;-54
2022/09/09 01:52:01;;;;;;;4.40;1.73;;;;;;;8.06;72.93;100299.75;4969143;28;20050;-54
2022/09/09 01:54:33;;;;;;;2.85;1.77;;;;;;;8.10;72.47;100295.41;4961571;28;20092;-49
2022/09/09 01:57:14;;;;;;;3.17;1.80;;;;;;;8.11;72.68;100297.13;4967136;28;20515;-52
2022/09/09 01:59:57;;;;;;;4.20;2.10;;;;;;;8.13;72.17;100299.66;4965041;28;20066;-51
2022/09/09 02:02:46;;;;;;;4.75;2.00;;;;;;;8.19;72.43;100304.75;4969060;28;20042;-53
2022/09/09 02:05:30;;;;;;;4.53;2.10;;;;;;;8.22;72.51;100308.13;4938441;28;20092;-52
2022/09/09 02:08:06;;;;;;;2.78;1.65;;;;;;;8.28;72.56;100309.78;4933883;29;20474;-53
2022/09/09 02:10:39;;;;;;;4.22;1.80;;;;;;;8.30;72.18;100308.94;4968451;28;20104;-54
2022/09/09 02:13:16;;;;;;;3.28;1.70;;;;;;;8.32;72.22;100314.09;4942243;28;20051;-52
2022/09/09 02:16:08;;;;;;;3.65;2.22;;;;;;;8.27;72.32;100314.13;4966889;28;20427;-55
2022/09/09 02:18:41;;;;;;;3.53;2.00;;;;;;;8.24;72.25;100310.72;4980675;28;20133;-56
2022/09/09 02:21:11;;;;;;;6.10;2.03;;;;;;;8.22;72.50;100317.66;4966544;28;20153;-56
2022/09/09 02:23:39;;;;;;;5.15;2.20;;;;;;;8.02;72.51;100289.44;4981096;28;20039;-52
2022/09/09 02:26:09;;;;;;;5.97;3.78;;;;;;;8.14;73.29;100316.91;4966191;28;20047;-54
2022/09/09 02:28:36;;;;;;;15.15;5.35;;;;;;;8.07;73.67;100313.53;4965789;28;20118;-52
2022/09/09 02:31:02;;;;;;;6.80;2.05;;;;;;;8.06;73.90;100322.19;4963573;28;20038;-55
2022/09/09 02:33:38;;;;;;;7.43;2.10;;;;;;;7.97;73.77;100319.72;4955596;28;20076;-54
2022/09/09 02:36:06;;;;;;;4.63;2.10;;;;;;;7.82;74.33;100312.16;4966475;28;20246;-48
2022/09/09 02:38:37;;;;;;;3.25;1.85;;;;;;;7.75;74.72;100326.91;4968683;28;20049;-52
2022/09/09 02:41:08;;;;;;;4.72;2.10;;;;;;;7.67;75.01;100328.75;4970588;28;20054;-56
2022/09/09 02:43:35;;;;;;;4.90;1.80;;;;;;;7.63;75.44;100329.69;4937541;28;20057;-54
2022/09/09 02:46:17;;;;;;;4.50;2.03;;;;;;;7.61;75.86;100336.59;4968560;28;20155;-56
2022/09/09 02:49:03;;;;;;;5.82;2.33;;;;;;;7.63;75.72;100348.66;4969361;28;20042;-56
2022/09/09 02:51:54;;;;;;;4.40;2.13;;;;;;;7.68;75.78;100345.16;4953075;28;20046;-55
2022/09/09 02:54:30;;;;;;;4.65;1.90;;;;;;;7.61;75.65;100344.34;4968911;28;20050;-55
2022/09/09 02:57:16;;;;;;;3.53;2.10;;;;;;;7.52;76.14;100347.06;4969071;28;20050;-56
2022/09/09 02:59:44;;;;;;;7.25;2.63;;;;;;;7.42;76.10;100354.06;4953409;28;20093;-52
2022/09/09 03:02:11;;;;;;;6.55;2.30;;;;;;;7.34;76.60;100355.00;4969567;28;20427;-50
2022/09/09 03:04:41;;;;;;;4.45;2.20;;;;;;;7.27;76.98;100362.00;4953077;28;20531;-56
2022/09/09 03:07:07;;;;;;;7.90;2.75;;;;;;;7.19;77.17;100356.88;4952961;28;20042;-55
2022/09/09 03:09:33;;;;;;;5.68;3.05;;;;;;;6.99;77.97;100332.09;4968668;28;20467;-51
2022/09/09 03:12:00;;;;;;;5.75;2.50;;;;;;;7.07;77.92;100356.13;4970536;28;20042;-49
2022/09/09 03:14:26;;;;;;;7.50;2.97;;;;;;;6.99;77.99;100351.03;4969390;28;20126;-55
2022/09/09 03:16:54;;;;;;;9.98;3.13;;;;;;;6.96;78.46;100360.56;4968389;28;20046;-53
2022/09/09 03:19:21;;;;;;;10.77;2.72;;;;;;;6.91;78.78;100364.94;4968533;28;20125;-54
2022/09/09 03:21:49;;;;;;;9.05;3.30;;;;;;;6.85;79.21;100363.25;4980647;28;20047;-48
2022/09/09 03:24:15;;;;;;;8.98;2.78;;;;;;;6.83;79.31;100364.97;4982193;28;20098;-53
2022/09/09 03:26:44;;;;;;;7.93;3.33;;;;;;;6.81;79.65;100372.72;4964186;28;20519;-54
2022/09/09 03:29:12;;;;;;;10.55;3.13;;;;;;;6.81;79.33;100369.28;4960214;28;20050;-54
2022/09/09 03:31:40;;;;;;;12.88;3.63;;;;;;;6.83;79.87;100372.72;4968170;28;20046;-52
2022/09/09 03:34:06;;;;;;;8.18;3.47;;;;;;;6.88;80.04;100377.84;4968840;28;20519;-49
2022/09/09 03:36:34;;;;;;;10.55;3.17;;;;;;;6.91;80.31;100376.09;4951147;28;20067;-53
2022/09/09 03:39:02;;;;;;;4.45;2.20;;;;;;;6.89;80.34;100370.09;4945137;29;20035;-49
2022/09/09 03:41:30;;;;;;;5.57;2.47;;;;;;;6.96;80.26;100386.41;4980965;28;20085;-53
2022/09/09 03:43:56;;;;;;;6.03;2.40;;;;;;;6.96;79.83;100389.00;4968713;28;20038;-50
2022/09/09 03:46:25;;;;;;;7.28;2.58;;;;;;;6.97;79.59;100385.53;4968849;28;20074;-52
2022/09/09 03:48:54;;;;;;;3.97;2.30;;;;;;;6.99;80.18;100388.97;4968169;28;20047;-49
2022/09/09 03:51:21;;;;;;;4.47;1.98;;;;;;;7.02;79.85;100387.19;4967831;28;20070;-53
2022/09/09 03:53:47;;;;;;;5.95;2.67;;;;;;;7.03;79.88;100388.06;4968598;28;20046;-53
2022/09/09 03:56:15;;;;;;;5.22;1.98;;;;;;;7.06;80.01;100388.91;4967787;28;20062;-49
2022/09/09 03:58:41;;;;;;;6.22;3.20;;;;;;;7.07;79.68;100389.75;4967809;28;20518;-51
2022/09/09 04:01:10;;;;;;;5.85;2.25;;;;;;;7.08;80.23;100394.03;4967622;28;20479;-54
2022/09/09 04:03:38;;;;;;;3.78;2.38;;;;;;;7.10;80.28;100395.75;4949221;28;20054;-53
2022/09/09 04:06:06;;;;;;;5.53;2.35;;;;;;;7.13;80.34;100398.31;4945773;28;20133;-54
2022/09/09 04:08:32;;;;;;;5.78;2.40;;;;;;;7.17;80.20;100399.16;4981623;28;20058;-54
2022/09/09 04:11:01;;;;;;;9.85;2.30;;;;;;;7.15;79.84;100396.56;4968604;28;20046;-54
2022/09/09 04:13:28;;;;;;;3.58;2.30;;;;;;;7.24;80.14;100395.63;4964809;28;20170;-53
2022/09/09 04:15:58;;;;;;;8.32;2.63;;;;;;;7.09;79.85;100362.16;4983964;28;20430;-53
2022/09/09 04:18:25;;;;;;;5.03;2.15;;;;;;;7.30;79.74;100393.00;4952601;28;20050;-55
2022/09/09 04:20:52;;;;;;;13.02;2.20;;;;;;;7.37;79.39;100398.97;4967515;28;20133;-53
2022/09/09 04:23:21;;;;;;;5.72;1.73;;;;;;;7.39;79.09;100403.22;4967353;28;20043;-51
2022/09/09 04:25:52;;;;;;;4.65;1.80;;;;;;;7.42;78.68;100407.53;4968607;28;20046;-49
2022/09/09 04:28:20;;;;;;;4.30;2.00;;;;;;;7.47;78.43;100400.59;4949143;28;20055;-49
2022/09/09 04:30:47;;;;;;;5.50;2.10;;;;;;;7.52;78.21;100398.81;4947894;28;20046;-52
2022/09/09 04:33:13;;;;;;;6.53;1.88;;;;;;;7.56;77.57;100400.47;4966560;28;20496;-52
2022/09/09 04:35:47;;;;;;;3.88;2.00;;;;;;;7.56;77.25;100392.72;4969468;28;20031;-51
2022/09/09 04:38:15;;;;;;;3.90;2.20;;;;;;;7.64;77.25;100390.91;4967651;28;20094;-51
2022/09/09 04:40:46;;;;;;;5.72;2.28;;;;;;;7.67;77.08;100401.22;4966983;28;20057;-55
2022/09/09 04:43:14;;;;;;;8.05;1.85;;;;;;;7.73;76.56;100403.75;4967914;28;20098;-52
2022/09/09 04:45:47;;;;;;;5.38;2.25;;;;;;;7.78;76.58;100406.28;4958834;28;20126;-52
2022/09/09 04:48:12;;;;;;;7.47;2.35;;;;;;;7.84;76.30;100401.91;4983436;28;20054;-54
2022/09/09 04:50:40;;;;;;;4.03;1.77;;;;;;;7.90;76.14;100412.16;4986589;28;20043;-54
2022/09/09 04:53:09;;;;;;;24.70;3.10;;;;;;;7.94;75.74;100405.22;4969326;28;20510;-49
2022/09/09 04:55:37;;;;;;;7.28;2.20;;;;;;;8.04;75.85;100414.59;4971522;28;20043;-52
2022/09/09 04:58:05;;;;;;;8.52;3.30;;;;;;;8.13;75.92;100411.03;4970025;28;20133;-50
2022/09/09 05:00:33;;;;;;;10.27;2.47;;;;;;;8.07;75.33;100391.25;4970917;28;20046;-53
2022/09/09 05:03:04;;;;;;;11.82;3.20;;;;;;;8.21;74.83;100404.88;4938111;28;20537;-52
2022/09/09 05:05:30;;;;;;;8.55;2.47;;;;;;;8.37;74.68;100416.75;4969371;28;20042;-56
2022/09/09 05:08:01;;;;;;;8.70;2.80;;;;;;;8.45;74.34;100419.25;4971890;28;20049;-55
2022/09/09 05:10:27;;;;;;;9.35;2.60;;;;;;;8.57;74.02;100423.41;4953919;28;20043;-53
2022/09/09 05:12:54;;;;;;;15.30;7.40;;;;;;;8.54;73.47;100403.56;4970710;28;20045;-53
2022/09/09 05:15:21;;;;;;;7.32;2.50;;;;;;;8.77;73.26;100432.63;4945696;28;20130;-56
2022/09/09 05:17:47;;;;;;;9.30;4.30;;;;;;;8.72;72.57;100403.31;4963243;28;20056;-55
2022/09/09 05:20:14;;;;;;;11.30;2.65;;;;;;;8.98;72.23;100436.63;4969254;28;20606;-57
2022/09/09 05:22:40;;;;;;;7.38;2.53;;;;;;;9.08;71.57;100432.13;4970546;28;20399;-56
2022/09/09 05:25:07;;;;;;;6.85;2.65;;;;;;;9.20;71.24;100440.59;4970454;28;20050;-53
2022/09/09 05:27:34;;;;;;;12.90;2.63;;;;;;;9.29;70.55;100437.81;4950844;29;20519;-52
2022/09/09 05:30:00;;;;;;;18.38;4.40;;;;;;;9.40;69.97;100437.63;4968567;28;20513;-55
2022/09/09 05:32:26;;;;;;;7.93;1.75;;;;;;;9.50;69.57;100441.78;4967726;28;20047;-52
2022/09/09 05:34:52;;;;;;;16.88;3.38;;;;;;;9.60;68.80;100438.13;4969909;28;20066;-53
2022/09/09 05:37:18;;;;;;;49.58;4.90;;;;;;;9.75;68.63;100445.63;4969462;28;20058;-51
2022/09/09 05:39:44;;;;;;;5.03;2.10;;;;;;;9.90;68.18;100449.69;4968906;28;20043;-52
2022/09/09 05:42:11;;;;;;;3.53;2.00;;;;;;;10.04;67.40;100446.81;4967327;28;20065;-53
2022/09/09 05:44:37;;;;;;;4.75;1.52;;;;;;;10.21;66.44;100452.53;4970087;28;20134;-56
2022/09/09 05:47:03;;;;;;;11.48;2.08;;;;;;;10.37;66.13;100440.09;4969933;28;20138;-55
2022/09/09 05:49:29;;;;;;;4.07;2.03;;;;;;;10.56;65.87;100446.63;4966675;28;20074;-54
2022/09/09 05:51:55;;;;;;;3.92;2.20;;;;;;;10.82;64.01;100446.03;4965982;28;20129;-54
2022/09/09 05:54:23;;;;;;;6.78;1.80;;;;;;;11.28;63.26;100433.63;4983853;28;20404;-53
2022/09/09 05:56:52;;;;;;;11.23;2.10;;;;;;;11.94;61.64;100437.09;4970082;28;20034;-50
2022/09/09 05:59:19;;;;;;;7.15;2.05;;;;;;;12.76;60.13;100439.91;4969568;28;20521;-52
2022/09/09 06:01:45;;;;;;;7.60;2.90;;;;;;;13.50;57.47;100422.63;4968377;28;20038;-57
2022/09/09 06:04:22;;;;;;;8.20;1.88;;;;;;;14.57;55.33;100450.13;4969437;28;20042;-56
2022/09/09 06:06:48;;;;;;;4.22;1.65;;;;;;;15.42;53.40;100454.56;4967686;28;20514;-56
2022/09/09 06:09:17;;;;;;;9.35;2.50;;;;;;;16.09;50.95;100434.16;4968864;28;20106;-56
2022/09/09 06:11:44;;;;;;;6.88;1.73;;;;;;;17.00;48.88;100450.91;4967217;28;20069;-55
2022/09/09 06:14:11;;;;;;;8.02;1.90;;;;;;;17.90;46.96;100459.56;4968376;28;20043;-55
2022/09/09 06:16:38;;;;;;;4.70;1.27;;;;;;;18.69;45.09;100461.41;4969457;28;20047;-55
2022/09/09 06:19:08;;;;;;;6.65;1.98;;;;;;;19.35;43.05;100455.88;4968168;28;20039;-53
2022/09/09 06:21:38;;;;;;;17.27;7.00;;;;;;;20.22;41.19;100462.94;4968183;28;20043;-51
2022/09/09 06:24:10;;;;;;;12.82;2.03;;;;;;;20.95;39.36;100468.88;4968390;28;20422;-50
2022/09/09 06:26:42;;;;;;;5.57;2.35;;;;;;;21.52;37.65;100463.38;4969609;28;20043;-50
2022/09/09 06:29:11;;;;;;;7.25;3.47;;;;;;;22.08;36.48;100467.50;4944230;28;20078;-50
2022/09/09 06:31:38;;;;;;;18.90;4.93;;;;;;;22.76;35.19;100475.91;4967750;28;20098;-49
2022/09/09 06:34:24;;;;;;;2.28;1.23;;;;;;;23.64;33.67;100468.50;4968293;28;20050;-58
2022/09/09 06:36:57;;;;;;;9.32;2.28;;;;;;;24.34;32.11;100471.84;4966675;28;20035;-56
2022/09/09 06:39:23;;;;;;;10.18;4.25;;;;;;;25.03;31.04;100475.16;4966584;28;20047;-57
2022/09/09 06:41:52;;;;;;;16.90;2.67;;;;;;;25.67;30.00;100476.03;4966952;28;20062;-51
2022/09/09 06:44:41;;;;;;;2.63;1.20;;;;;;;26.43;28.76;100474.78;4954370;28;20125;-52
2022/09/09 06:47:12;;;;;;;14.73;2.70;;;;;;;26.95;27.73;100481.69;4939585;28;20097;-54
2022/09/09 06:49:39;;;;;;;4.32;2.10;;;;;;;26.92;27.11;100481.13;4980329;28;20047;-57
2022/09/09 06:52:08;;;;;;;11.07;3.78;;;;;;;27.46;26.46;100463.75;4948718;28;20375;-47
2022/09/09 06:54:37;;;;;;;6.10;3.53;;;;;;;26.84;26.45;100476.47;4967436;28;20041;-55
2022/09/09 06:57:06;;;;;;;15.52;5.18;;;;;;;25.90;26.90;100481.22;4966803;28;20042;-55
2022/09/09 06:59:33;;;;;;;5.38;3.22;;;;;;;23.71;29.07;100485.63;4962809;28;20043;-58
2022/09/09 07:02:00;;;;;;;8.93;1.90;;;;;;;22.41;30.44;100482.81;4949519;28;20039;-62
2022/09/09 07:04:26;;;;;;;8.13;2.45;;;;;;;21.37;31.67;100465.25;4972177;28;20062;-66
2022/09/09 07:06:52;;;;;;;9.30;2.42;;;;;;;20.36;33.40;100480.59;4965724;28;20066;-62
2022/09/09 07:09:23;;;;;;;6.50;1.30;;;;;;;20.15;33.82;100474.81;4951827;28;20043;-57
2022/09/09 07:11:52;;;;;;;3.10;1.13;;;;;;;22.68;30.78;100486.16;4961139;28;20141;-55
2022/09/09 07:14:20;;;;;;;6.57;2.63;;;;;;;24.98;28.25;100493.31;4967634;28;20134;-57
2022/09/09 07:16:51;;;;;;;5.10;2.28;;;;;;;26.65;26.48;100489.72;4966708;28;20042;-54
2022/09/09 07:19:18;;;;;;;7.90;2.35;;;;;;;26.62;26.43;100500.69;4967564;28;20043;-55
2022/09/09 07:21:46;;;;;;;3.03;1.65;;;;;;;27.56;25.41;100491.31;4957430;28;20076;-55
2022/09/09 07:24:15;;;;;;;11.43;2.88;;;;;;;27.89;24.74;100493.53;4967903;28;20050;-59
2022/09/09 07:26:43;;;;;;;10.27;2.78;;;;;;;28.01;24.23;100487.03;4982997;28;20054;-54
2022/09/09 07:29:13;;;;;;;7.32;5.53;;;;;;;26.29;25.58;100500.97;4966787;28;20055;-57
2022/09/09 07:31:40;;;;;;;13.18;4.13;;;;;;;24.34;27.55;100493.13;4949530;28;20050;-57
2022/09/09 07:34:09;;;;;;;9.20;4.82;;;;;;;24.48;27.59;100486.72;4965234;28;20039;-54
2022/09/09 07:36:37;;;;;;;13.23;6.50;;;;;;;26.38;25.95;100508.19;4966758;28;20039;-54
2022/09/09 07:39:08;;;;;;;7.05;3.00;;;;;;;27.93;24.10;100513.66;4965885;28;20045;-59
2022/09/09 07:41:40;;;;;;;6.90;3.10;;;;;;;27.25;24.03;100512.81;4977875;28;20067;-55
2022/09/09 07:44:10;;;;;;;15.70;6.90;;;;;;;25.23;25.99;100508.13;4950260;28;20049;-58
2022/09/09 07:46:39;;;;;;;8.18;2.65;;;;;;;23.79;27.22;100512.47;4966913;28;20058;-52
2022/09/09 07:49:08;;;;;;;4.32;1.67;;;;;;;25.28;26.14;100514.78;4967331;28;20073;-58
2022/09/09 07:51:37;;;;;;;1.52;1.25;;;;;;;27.12;24.46;100522.03;4967427;28;20038;-58
2022/09/09 07:54:06;;;;;;;14.90;7.97;;;;;;;28.28;23.45;100522.88;4966810;28;20134;-57
2022/09/09 07:56:33;;;;;;;12.98;4.25;;;;;;;27.01;24.32;100522.19;4967098;28;20042;-60
2022/09/09 07:59:00;;;;;;;20.33;6.00;;;;;;;25.08;25.58;100514.72;4966598;28;20049;-57
2022/09/09 08:01:30;;;;;;;23.50;9.57;;;;;;;23.59;26.93;100515.78;4966807;28;20046;-59
2022/09/09 08:04:06;;;;;;;28.42;7.15;;;;;;;23.28;27.36;100519.00;4966158;28;20511;-57
2022/09/09 08:06:59;;;;;;;3.58;1.38;;;;;;;22.26;28.51;100519.19;4973282;28;20096;-57
2022/09/09 08:09:28;;;;;;;7.78;3.50;;;;;;;21.24;29.52;100497.91;4968096;28;20050;-53
2022/09/09 08:12:01;;;;;;;10.65;5.20;;;;;;;20.53;30.80;100512.09;4965888;28;20589;-53
2022/09/09 08:14:29;;;;;;;14.00;8.02;;;;;;;20.09;31.44;100512.16;4965214;28;20085;-51
2022/09/09 08:16:57;;;;;;;3.63;1.67;;;;;;;20.76;31.15;100509.81;4965421;28;20030;-55
2022/09/09 08:19:26;;;;;;;31.00;13.40;;;;;;;20.99;31.11;100506.53;4950275;28;20120;-52
2022/09/09 08:21:53;;;;;;;21.30;11.55;;;;;;;21.45;30.21;100521.19;4966003;28;20047;-51
2022/09/09 08:24:19;;;;;;;20.00;10.68;;;;;;;21.34;30.26;100525.47;4937679;28;20085;-51
2022/09/09 08:26:49;;;;;;;22.85;5.68;;;;;;;21.34;30.42;100521.03;4969986;28;20050;-54
2022/09/09 08:29:18;;;;;;;7.20;2.53;;;;;;;23.75;27.80;100516.31;4939678;28;20062;-50
2022/09/09 08:31:57;;;;;;;15.65;6.10;;;;;;;23.54;27.35;100515.28;4955258;28;20081;-55
2022/09/09 08:34:25;;;;;;;15.30;6.43;;;;;;;23.05;28.21;100524.16;4938566;28;20089;-49
2022/09/09 08:36:52;;;;;;;;;;;;;;;25.33;26.15;100519.75;4971436;28;20097;-52
2022/09/09 08:39:22;;;;;;;19.38;6.20;;;;;;;26.86;24.55;100521.66;4971142;28;19918;-48
2022/09/09 08:42:02;;;;;;;8.55;4.07;;;;;;;28.74;22.84;100530.03;4954140;28;20050;-54
2022/09/09 08:44:57;;;;;;;13.68;3.33;;;;;;;30.20;21.00;100535.03;4970541;28;20421;-54
2022/09/09 08:47:34;;;;;;;10.15;3.22;;;;;;;30.16;21.12;100547.03;4971060;28;20051;-53
2022/09/09 08:50:14;;;;;;;5.75;2.00;;;;;;;27.65;22.94;100527.88;4954998;28;20050;-53
2022/09/09 08:52:59;;;;;;;2.35;0.80;;;;;;;27.96;22.81;100533.88;4970885;28;20488;-51
2022/09/09 08:55:25;;;;;;;1.00;0.90;;;;;;;29.99;21.06;100535.34;4954982;28;20049;-54
2022/09/09 08:57:54;;;;;;;;;;;;;;;31.44;19.31;100540.59;4971556;28;20144;-55
2022/09/09 09:00:20;;;;;;;1.15;1.05;;;;;;;32.30;18.62;100538.22;4970781;28;19918;-54
2022/09/09 09:02:49;;;;;;;0.90;0.90;;;;;;;33.29;17.63;100534.97;4955021;28;20061;-53
2022/09/09 09:05:52;;;;;;;2.65;1.63;;;;;;;33.67;16.81;100537.75;4954835;28;20045;-53
2022/09/09 09:08:43;;;;;;;1.90;1.02;;;;;;;32.35;17.53;100526.94;4939257;29;20051;-51
2022/09/09 09:11:09;;;;;;;1.73;1.02;;;;;;;29.51;19.48;100538.47;4951443;28;20160;-54
2022/09/09 09:13:36;;;;;;;6.47;2.30;;;;;;;27.18;21.94;100530.34;4951580;29;20404;-52
2022/09/09 09:16:41;;;;;;;3.88;1.90;;;;;;;25.46;23.70;100525.72;4951312;28;20507;-50
2022/09/09 09:19:14;;;;;;;2.33;1.10;;;;;;;24.33;24.72;100527.81;4951287;28;20054;-54
2022/09/09 09:21:46;;;;;;;2.58;1.00;;;;;;;23.47;25.49;100530.81;4936825;28;20133;-50
2022/09/09 09:24:32;;;;;;;3.15;1.10;;;;;;;23.23;25.66;100520.19;4970256;28;20054;-53
2022/09/09 09:27:07;;;;;;;9.25;1.55;;;;;;;26.00;23.37;100524.78;4953940;28;20051;-52
2022/09/09 09:29:34;;;;;;;1.10;0.70;;;;;;;26.11;22.45;100524.69;4970065;28;20105;-50
2022/09/09 09:32:02;;;;;;;3.38;1.40;;;;;;;24.63;24.37;100528.06;4970528;28;20789;-56
2022/09/09 09:34:28;;;;;;;3.15;1.25;;;;;;;23.35;25.99;100528.16;4969253;28;20581;-53
2022/09/09 09:36:57;;;;;;;2.33;0.90;;;;;;;22.32;27.37;100531.16;4969838;28;20075;-54
2022/09/09 09:39:28;;;;;;;;;;;;;;;21.61;28.03;100525.44;4969763;28;20046;-53
2022/09/09 09:42:00;;;;;;;3.13;1.20;;;;;;;21.29;28.97;100523.13;4967338;28;19929;-52
2022/09/09 09:44:31;;;;;;;3.67;2.30;;;;;;;21.63;28.80;100526.16;4966796;28;20039;-53
2022/09/09 09:47:11;;;;;;;1.55;0.90;;;;;;;21.66;28.58;100518.91;4969773;28;20050;-52
2022/09/09 09:49:37;;;;;;;1.40;1.00;;;;;;;21.17;29.02;100517.78;4969959;28;20519;-50
2022/09/09 09:52:04;;;;;;;3.45;1.40;;;;;;;20.75;29.38;100497.53;4969656;28;20078;-54
2022/09/09 09:54:38;;;;;;;2.65;1.10;;;;;;;20.44;30.07;100522.38;4969637;28;20532;-55
2022/09/09 09:57:15;;;;;;;6.45;3.25;;;;;;;21.26;29.57;100498.66;4953554;28;20513;-51
2022/09/09 09:59:43;;;;;;;3.55;1.50;;;;;;;24.50;26.31;100522.00;4953972;28;20121;-47
2022/09/09 10:02:26;;;;;;;3.58;0.98;;;;;;;23.71;26.45;100516.69;4953995;28;20426;-49
2022/09/09 10:05:20;;;;;;;6.20;1.50;;;;;;;22.15;28.15;100527.03;4954815;28;20042;-52
2022/09/09 10:08:05;;;;;;;4.63;1.42;;;;;;;21.16;29.03;100524.00;4969151;28;20416;-52
2022/09/09 10:10:58;;;;;;;2.40;1.27;;;;;;;20.27;30.47;100515.47;4953569;28;20050;-53
2022/09/09 10:13:23;;;;;;;2.83;1.40;;;;;;;19.61;31.45;100529.13;4959508;28;20565;-54
2022/09/09 10:16:13;;;;;;;6.85;1.08;;;;;;;19.14;32.31;100531.78;4970716;28;20046;-56
2022/09/09 10:18:47;;;;;;;1.30;0.80;;;;;;;18.76;32.88;100533.91;4970749;28;20055;-54
2022/09/09 10:21:47;;;;;;;2.80;1.05;;;;;;;18.54;33.77;100531.56;4971033;28;20042;-54
2022/09/09 10:24:41;;;;;;;5.85;1.48;;;;;;;18.49;34.21;100536.19;4963326;28;20130;-53
2022/09/09 10:27:25;;;;;;;3.20;0.85;;;;;;;18.55;34.16;100540.31;4951309;28;20147;-54
2022/09/09 10:30:20;;;;;;;8.45;1.75;;;;;;;18.67;33.93;100525.66;4967690;28;20046;-55
2022/09/09 10:32:52;;;;;;;4.45;1.75;;;;;;;18.83;33.97;100530.00;4969087;28;20206;-51
2022/09/09 10:35:29;;;;;;;1.77;0.80;;;;;;;19.62;32.69;100527.31;4970188;28;20557;-47
2022/09/09 10:38:17;;;;;;;2.50;1.10;;;;;;;21.09;31.07;100534.13;4968716;28;20495;-53
2022/09/09 10:40:56;;;;;;;6.03;2.00;;;;;;;24.41;27.05;100530.72;4970198;28;20047;-54
2022/09/09 10:43:31;;;;;;;4.00;1.20;;;;;;;26.88;23.71;100533.09;4970024;28;20491;-54
2022/09/09 10:46:28;;;;;;;1.48;1.05;;;;;;;27.20;22.66;100532.88;4964393;28;20062;-47
2022/09/09 10:49:06;;;;;;;6.93;1.60;;;;;;;29.20;21.25;100535.28;4950951;28;20113;-52
2022/09/09 10:51:50;;;;;;;4.18;1.60;;;;;;;28.04;21.93;100537.56;4949240;28;20042;-54
2022/09/09 10:54:25;;;;;;;6.10;3.08;;;;;;;25.75;23.67;100535.81;4963090;28;20047;-58
2022/09/09 10:57:09;;;;;;;3.85;2.45;;;;;;;24.03;24.96;100534.50;4969688;28;20035;-54
2022/09/09 10:59:43;;;;;;;10.65;2.22;;;;;;;22.78;26.68;100537.59;4968658;28;20047;-56
2022/09/09 11:02:25;;;;;;;7.65;2.72;;;;;;;21.98;27.47;100531.78;4966935;28;20067;-54
2022/09/09 11:04:57;;;;;;;2.78;1.33;;;;;;;21.61;27.75;100526.28;4968691;28;20113;-52
2022/09/09 11:07:57;;;;;;;6.97;4.20;;;;;;;22.84;26.80;100533.66;4949574;28;20545;-55
2022/09/09 11:10:48;;;;;;;2.42;1.15;;;;;;;22.33;27.19;100528.41;4975655;28;20063;-55
2022/09/09 11:13:45;;;;;;;7.50;2.80;;;;;;;21.13;29.03;100532.97;4967591;28;20050;-52
2022/09/09 11:16:31;;;;;;;3.95;1.65;;;;;;;20.52;30.20;100528.88;4955021;28;20053;-48
2022/09/09 11:19:40;;;;;;;4.35;1.90;;;;;;;20.83;29.88;100532.28;4968409;28;20432;-53
2022/09/09 11:22:14;;;;;;;5.68;1.13;;;;;;;20.16;31.04;100529.31;4969230;28;20101;-52
2022/09/09 11:24:45;;;;;;;10.07;3.30;;;;;;;19.63;32.13;100524.56;4968745;28;20047;-55
2022/09/09 11:27:19;;;;;;;5.07;2.30;;;;;;;19.49;32.39;100528.97;4967770;28;20041;-56
2022/09/09 11:30:06;;;;;;;4.53;1.30;;;;;;;19.98;31.99;100533.06;4968820;28;20043;-53
2022/09/09 11:32:54;;;;;;;14.82;4.05;;;;;;;23.13;28.78;100532.41;4969082;28;20045;-49
2022/09/09 11:35:30;;;;;;;5.00;2.10;;;;;;;25.91;25.88;100539.69;4966571;28;20041;-53
2022/09/09 11:38:21;;;;;;;16.27;8.35;;;;;;;27.52;23.56;100540.69;4967856;28;20057;-54
2022/09/09 11:40:58;;;;;;;3.05;1.85;;;;;;;28.96;22.20;100529.63;4950006;28;20479;-54
2022/09/09 11:43:32;;;;;;;6.47;3.83;;;;;;;29.92;20.98;100539.69;4950185;28;20089;-53
2022/09/09 11:46:02;;;;;;;3.80;1.00;;;;;;;30.04;20.68;100535.75;4950196;28;20051;-52
2022/09/09 11:48:28;;;;;;;15.45;3.53;;;;;;;29.25;21.27;100541.03;4966384;28;20137;-54
2022/09/09 11:51:07;;;;;;;9.20;5.50;;;;;;;27.69;22.20;100519.44;4967967;28;20422;-52
2022/09/09 11:53:35;;;;;;;4.90;2.90;;;;;;;26.31;23.53;100528.34;4967178;28;20414;-57
2022/09/09 11:56:04;;;;;;;4.40;1.60;;;;;;;25.34;24.23;100524.06;4968093;28;20490;-52
2022/09/09 11:58:45;;;;;;;3.25;1.70;;;;;;;24.45;24.77;100498.44;4981629;28;20857;-53